createdAt,value
2022-08-29T00:01:13.003Z,49.07
2022-08-29T00:03:41.179Z,49.62
2022-08-29T00:06:10.523Z,50.79
2022-08-29T00:08:37.688Z,49.89
2022-08-29T00:11:06.714Z,51.96
2022-08-29T00:13:34.244Z,51.61
2022-08-29T00:16:01.508Z,50.21
2022-08-29T00:18:29.007Z,49.13
2022-08-29T00:20:56.225Z,47.98
2022-08-29T00:23:23.402Z,48.76
2022-08-29T00:25:50.890Z,51.84
2022-08-29T00:28:18.095Z,50.53
2022-08-29T00:30:45.336Z,47.94
2022-08-29T00:33:12.766Z,48.99
2022-08-29T00:35:40.656Z,48.77
2022-08-29T00:38:08.544Z,47.84
2022-08-29T00:40:41.304Z,48.36
2022-08-29T00:43:08.900Z,47.93
2022-08-29T00:45:37.070Z,48.20
2022-08-29T00:48:08.280Z,48.52
2022-08-29T00:50:37.032Z,49.03
2022-08-29T00:53:05.234Z,51.05
2022-08-29T00:55:33.409Z,51.56
2022-08-29T00:58:02.948Z,51.58
2022-08-29T01:00:30.571Z,51.68
2022-08-29T01:02:57.746Z,52.77
2022-08-29T01:05:24.939Z,50.70
2022-08-29T01:07:52.517Z,51.59
2022-08-29T01:10:38.824Z,50.20
2022-08-29T01:13:06.297Z,49.51
2022-08-29T01:15:33.740Z,49.37
2022-08-29T01:18:01.172Z,49.84
2022-08-29T01:20:34.377Z,49.73
2022-08-29T01:23:31.024Z,49.92
2022-08-29T01:25:58.487Z,50.93
2022-08-29T01:28:29.877Z,48.63
2022-08-29T01:30:56.991Z,53.47
2022-08-29T01:33:24.440Z,52.43
2022-08-29T01:35:51.702Z,51.79
2022-08-29T01:38:27.712Z,51.73
2022-08-29T01:40:56.176Z,50.58
2022-08-29T01:43:23.370Z,51.94
2022-08-29T01:45:50.756Z,50.25
2022-08-29T01:48:18.549Z,50.35
2022-08-29T01:50:46.465Z,50.73
2022-08-29T01:53:13.826Z,50.94
2022-08-29T01:55:41.657Z,51.71
2022-08-29T01:58:09.120Z,52.70
2022-08-29T02:00:36.803Z,52.56
2022-08-29T02:03:04.288Z,50.88
2022-08-29T02:05:31.513Z,51.13
2022-08-29T02:07:58.708Z,51.12
2022-08-29T02:10:26.242Z,51.54
2022-08-29T02:12:53.848Z,51.83
2022-08-29T02:15:21.375Z,50.28
2022-08-29T02:17:48.799Z,49.99
2022-08-29T02:20:16.291Z,51.78
2022-08-29T02:22:43.495Z,52.67
2022-08-29T02:25:30.010Z,50.58
2022-08-29T02:27:59.185Z,50.30
2022-08-29T02:30:26.658Z,51.68
2022-08-29T02:32:54.143Z,51.12
2022-08-29T02:35:22.657Z,51.44
2022-08-29T02:37:52.257Z,49.79
2022-08-29T02:40:19.628Z,50.53
2022-08-29T02:42:53.784Z,51.06
2022-08-29T02:45:21.829Z,51.22
2022-08-29T02:47:49.010Z,53.50
2022-08-29T02:50:16.511Z,51.85
2022-08-29T02:52:43.844Z,51.40
2022-08-29T02:55:12.729Z,50.34
2022-08-29T02:57:40.202Z,50.22
2022-08-29T03:00:09.118Z,53.55
2022-08-29T03:02:36.323Z,52.55
2022-08-29T03:05:03.936Z,53.35
2022-08-29T03:07:31.166Z,51.49
2022-08-29T03:09:58.332Z,49.53
2022-08-29T03:12:25.828Z,50.39
2022-08-29T03:14:55.488Z,52.02
2022-08-29T03:17:22.650Z,52.68
2022-08-29T03:19:50.148Z,51.46
2022-08-29T03:22:19.057Z,50.49
2022-08-29T03:24:46.296Z,49.75
2022-08-29T03:27:13.838Z,52.88
2022-08-29T03:29:41.018Z,51.56
2022-08-29T03:32:08.224Z,50.95
2022-08-29T03:34:35.660Z,48.99
2022-08-29T03:37:02.843Z,49.34
2022-08-29T03:39:30.047Z,51.61
2022-08-29T03:41:57.505Z,53.89
2022-08-29T03:44:24.694Z,51.06
2022-08-29T03:46:52.059Z,51.19
2022-08-29T03:49:19.542Z,52.02
2022-08-29T03:51:46.695Z,50.19
2022-08-29T03:54:13.870Z,52.03
2022-08-29T03:56:41.327Z,51.18
2022-08-29T03:59:08.856Z,50.19
2022-08-29T04:01:36.163Z,51.18
2022-08-29T04:04:03.917Z,50.85
2022-08-29T04:06:33.751Z,49.97
2022-08-29T04:09:00.926Z,49.17
2022-08-29T04:11:28.939Z,52.01
2022-08-29T04:13:57.084Z,50.69
2022-08-29T04:16:25.454Z,49.24
2022-08-29T04:18:58.134Z,48.91
2022-08-29T04:21:26.013Z,48.03
2022-08-29T04:26:41.068Z,49.33
2022-08-29T04:29:09.312Z,49.94
2022-08-29T04:31:36.901Z,49.24
2022-08-29T04:34:06.461Z,48.44
2022-08-29T04:36:34.291Z,47.65
2022-08-29T04:39:01.511Z,48.48
2022-08-29T04:41:28.936Z,47.62
2022-08-29T04:43:56.092Z,47.52
2022-08-29T04:46:23.770Z,48.02
2022-08-29T04:48:55.020Z,46.83
2022-08-29T04:51:22.306Z,47.73
2022-08-29T04:53:53.261Z,45.82
2022-08-29T04:56:21.468Z,45.50
2022-08-29T04:58:50.508Z,44.68
2022-08-29T05:01:19.137Z,45.02
2022-08-29T05:03:46.643Z,46.18
2022-08-29T05:06:14.459Z,45.73
2022-08-29T05:08:42.598Z,47.41
2022-08-29T05:11:11.489Z,47.03
2022-08-29T05:13:39.037Z,47.20
2022-08-29T05:16:11.146Z,46.63
2022-08-29T05:18:39.197Z,48.04
2022-08-29T05:21:06.583Z,46.37
2022-08-29T05:23:34.854Z,48.81
2022-08-29T05:26:02.838Z,48.11
2022-08-29T05:28:30.672Z,46.10
2022-08-29T05:30:58.174Z,44.22
2022-08-29T05:33:25.445Z,46.60
2022-08-29T05:35:52.692Z,46.32
2022-08-29T05:38:20.162Z,48.97
2022-08-29T05:40:47.427Z,46.75
2022-08-29T05:43:14.695Z,50.36
2022-08-29T05:45:42.904Z,49.58
2022-08-29T05:48:10.219Z,48.53
2022-08-29T05:50:41.881Z,49.38
2022-08-29T05:53:10.057Z,50.99
2022-08-29T05:55:41.042Z,47.45
2022-08-29T05:58:08.233Z,49.15
2022-08-29T06:00:37.808Z,48.40
2022-08-29T06:03:05.698Z,48.25
2022-08-29T06:05:32.973Z,47.06
2022-08-29T06:08:00.172Z,45.74
2022-08-29T06:10:27.782Z,47.99
2022-08-29T06:12:54.974Z,47.83
2022-08-29T06:15:22.608Z,46.66
2022-08-29T06:17:50.060Z,46.47
2022-08-29T06:20:17.269Z,48.44
2022-08-29T06:22:44.442Z,46.22
2022-08-29T06:25:35.526Z,48.57
2022-08-29T06:27:59.088Z,48.88
2022-08-29T06:30:26.631Z,47.02
2022-08-29T06:32:53.903Z,48.97
2022-08-29T06:35:21.176Z,50.73
2022-08-29T06:37:48.621Z,48.56
2022-08-29T06:40:15.856Z,50.36
2022-08-29T06:42:43.122Z,48.40
2022-08-29T06:45:11.254Z,49.89
2022-08-29T06:47:38.442Z,50.91
2022-08-29T06:50:06.551Z,49.00
2022-08-29T06:52:33.992Z,48.35
2022-08-29T06:55:02.968Z,49.11
2022-08-29T06:57:30.148Z,48.79
2022-08-29T06:59:57.575Z,48.61
2022-08-29T07:02:24.780Z,49.09
2022-08-29T07:04:51.994Z,51.00
2022-08-29T07:07:19.451Z,49.79
2022-08-29T07:09:47.301Z,48.00
2022-08-29T07:12:14.481Z,49.30
2022-08-29T07:14:41.927Z,47.55
2022-08-29T07:17:09.099Z,46.01
2022-08-29T07:19:36.314Z,46.35
2022-08-29T07:22:07.909Z,44.91
2022-08-29T07:24:35.121Z,44.47
2022-08-29T07:27:02.348Z,44.77
2022-08-29T07:29:30.764Z,46.11
2022-08-29T07:31:57.956Z,44.26
2022-08-29T07:34:25.129Z,46.39
2022-08-29T07:36:52.577Z,45.18
2022-08-29T07:39:19.901Z,46.92
2022-08-29T07:41:47.094Z,48.04
2022-08-29T07:44:14.751Z,45.74
2022-08-29T07:46:42.693Z,43.93
2022-08-29T07:49:10.123Z,44.07
2022-08-29T07:51:37.591Z,43.98
2022-08-29T07:54:11.181Z,45.61
2022-08-29T07:56:40.084Z,44.61
2022-08-29T07:59:07.313Z,45.75
2022-08-29T08:01:35.712Z,46.91
2022-08-29T08:04:03.523Z,46.77
2022-08-29T08:06:30.725Z,44.13
2022-08-29T08:08:57.929Z,44.64
2022-08-29T08:11:25.973Z,43.60
2022-08-29T08:13:53.704Z,43.66
2022-08-29T08:16:21.599Z,46.17
2022-08-29T08:18:49.222Z,43.51
2022-08-29T08:21:16.382Z,43.67
2022-08-29T08:23:43.618Z,45.10
2022-08-29T08:26:11.541Z,42.59
2022-08-29T08:28:39.152Z,43.50
2022-08-29T08:31:07.462Z,43.08
2022-08-29T08:33:35.673Z,44.73
2022-08-29T08:36:03.788Z,46.50
2022-08-29T08:38:31.569Z,44.97
2022-08-29T08:41:18.231Z,43.55
2022-08-29T08:43:58.973Z,44.03
2022-08-29T08:46:40.379Z,43.48
2022-08-29T08:49:12.137Z,42.72
2022-08-29T08:51:40.355Z,44.48
2022-08-29T08:54:08.498Z,44.74
2022-08-29T08:56:36.083Z,45.50
2022-08-29T08:59:16.244Z,44.17
2022-08-29T09:01:45.294Z,43.02
2022-08-29T09:04:12.761Z,42.27
2022-08-29T09:06:42.864Z,42.11
2022-08-29T09:09:15.814Z,43.21
2022-08-29T09:11:45.287Z,41.99
2022-08-29T09:14:12.401Z,42.31
2022-08-29T09:16:43.915Z,42.40
2022-08-29T09:19:11.900Z,39.98
2022-08-29T09:21:45.241Z,40.75
2022-08-29T09:24:15.978Z,40.25
2022-08-29T09:26:43.677Z,42.24
2022-08-29T09:29:11.999Z,41.58
2022-08-29T09:31:41.194Z,40.94
2022-08-29T09:34:12.058Z,41.53
2022-08-29T09:36:48.480Z,42.22
2022-08-29T09:39:17.566Z,42.90
2022-08-29T09:41:46.491Z,41.61
2022-08-29T09:44:14.991Z,41.73
2022-08-29T09:46:42.895Z,41.54
2022-08-29T09:49:14.961Z,41.04
2022-08-29T09:51:43.937Z,40.03
2022-08-29T09:54:16.302Z,40.56
2022-08-29T09:56:48.509Z,39.14
2022-08-29T09:59:51.538Z,40.30
2022-08-29T10:02:19.748Z,41.91
2022-08-29T10:05:07.968Z,40.18
2022-08-29T10:07:47.840Z,41.09
2022-08-29T10:10:15.237Z,41.54
2022-08-29T10:12:42.497Z,39.91
2022-08-29T10:15:33.461Z,40.73
2022-08-29T10:18:23.883Z,40.20
2022-08-29T10:21:00.179Z,40.99
2022-08-29T10:23:43.040Z,41.79
2022-08-29T10:26:14.322Z,40.96
2022-08-29T10:28:46.942Z,40.98
2022-08-29T10:31:27.787Z,39.23
2022-08-29T10:34:01.682Z,38.71
2022-08-29T10:36:33.166Z,40.99
2022-08-29T10:39:12.846Z,38.73
2022-08-29T10:42:22.012Z,36.98
2022-08-29T10:44:57.293Z,38.86
2022-08-29T10:47:26.235Z,39.59
2022-08-29T10:49:53.697Z,38.39
2022-08-29T10:52:25.262Z,37.65
2022-08-29T10:55:07.854Z,38.59
2022-08-29T10:57:38.014Z,36.60
2022-08-29T11:00:07.812Z,39.05
2022-08-29T11:02:54.133Z,38.08
2022-08-29T11:05:32.968Z,38.67
2022-08-29T11:08:02.120Z,37.53
2022-08-29T11:10:30.758Z,38.80
2022-08-29T11:13:11.981Z,38.82
2022-08-29T11:15:42.459Z,37.65
2022-08-29T11:18:22.315Z,37.34
2022-08-29T11:20:50.726Z,38.13
2022-08-29T11:23:27.044Z,38.86
2022-08-29T11:25:55.278Z,38.01
2022-08-29T11:28:50.814Z,37.59
2022-08-29T11:31:25.889Z,38.50
2022-08-29T11:33:59.363Z,39.68
2022-08-29T11:36:45.965Z,39.24
2022-08-29T11:39:29.905Z,37.87
2022-08-29T11:41:58.637Z,37.74
2022-08-29T11:44:33.342Z,36.85
2022-08-29T11:47:01.021Z,35.83
2022-08-29T11:49:32.086Z,34.77
2022-08-29T11:52:08.235Z,37.87
2022-08-29T11:54:35.668Z,37.80
2022-08-29T11:57:04.043Z,36.27
2022-08-29T11:59:50.773Z,36.72
2022-08-29T12:02:33.229Z,36.10
2022-08-29T12:05:06.454Z,36.49
2022-08-29T12:07:36.438Z,35.23
2022-08-29T12:10:06.555Z,35.44
2022-08-29T12:12:38.390Z,36.61
2022-08-29T12:15:25.196Z,35.55
2022-08-29T12:18:01.834Z,37.60
2022-08-29T12:20:30.134Z,34.64
2022-08-29T12:23:05.550Z,34.84
2022-08-29T12:25:44.715Z,36.14
2022-08-29T12:28:17.894Z,37.04
2022-08-29T12:30:47.231Z,35.99
2022-08-29T12:33:23.137Z,35.76
2022-08-29T12:36:09.756Z,36.29
2022-08-29T12:39:03.125Z,34.70
2022-08-29T12:41:47.115Z,36.15
2022-08-29T12:44:16.700Z,35.40
2022-08-29T12:46:45.324Z,35.13
2022-08-29T12:49:23.467Z,34.15
2022-08-29T12:51:58.409Z,35.32
2022-08-29T12:54:33.104Z,34.71
2022-08-29T12:57:00.559Z,33.64
2022-08-29T12:59:29.089Z,34.09
2022-08-29T13:01:57.233Z,34.66
2022-08-29T13:04:26.270Z,33.72
2022-08-29T13:07:03.478Z,33.62
2022-08-29T13:09:32.726Z,35.88
2022-08-29T13:12:06.514Z,34.73
2022-08-29T13:14:36.097Z,34.87
2022-08-29T13:17:10.624Z,34.75
2022-08-29T13:19:38.090Z,34.17
2022-08-29T13:22:05.259Z,34.08
2022-08-29T13:24:32.442Z,35.32
2022-08-29T13:27:04.214Z,34.71
2022-08-29T13:29:38.229Z,35.32
2022-08-29T13:32:26.512Z,34.65
2022-08-29T13:34:59.765Z,34.18
2022-08-29T13:37:28.958Z,35.19
2022-08-29T13:39:56.198Z,32.54
2022-08-29T13:42:25.442Z,32.73
2022-08-29T13:45:00.334Z,33.69
2022-08-29T13:47:28.988Z,35.69
2022-08-29T13:49:58.213Z,34.15
2022-08-29T13:52:31.445Z,35.07
2022-08-29T13:54:59.654Z,33.43
2022-08-29T13:57:32.289Z,33.76
2022-08-29T13:59:59.967Z,34.62
2022-08-29T14:02:27.859Z,34.02
2022-08-29T14:04:55.593Z,33.08
2022-08-29T14:07:25.020Z,35.15
2022-08-29T14:09:52.474Z,34.16
2022-08-29T14:12:21.428Z,35.46
2022-08-29T14:14:57.597Z,34.69
2022-08-29T14:17:25.163Z,34.06
2022-08-29T14:19:52.521Z,34.13
2022-08-29T14:22:20.335Z,32.24
2022-08-29T14:24:53.085Z,32.00
2022-08-29T14:27:21.255Z,31.10
2022-08-29T14:29:48.971Z,32.36
2022-08-29T14:32:16.229Z,33.41
2022-08-29T14:34:44.786Z,34.66
2022-08-29T14:37:20.096Z,33.42
2022-08-29T14:39:49.763Z,33.11
2022-08-29T14:42:18.187Z,32.13
2022-08-29T14:44:45.669Z,32.87
2022-08-29T14:47:13.147Z,32.45
2022-08-29T14:49:40.653Z,33.26
2022-08-29T14:52:08.111Z,33.47
2022-08-29T14:54:37.814Z,32.93
2022-08-29T14:57:05.149Z,33.29
2022-08-29T14:59:32.606Z,33.96
2022-08-29T15:02:00.234Z,33.56
2022-08-29T15:04:35.603Z,33.63
2022-08-29T15:07:13.537Z,32.58
2022-08-29T15:09:42.099Z,32.17
2022-08-29T15:12:13.233Z,33.94
2022-08-29T15:14:41.455Z,33.15
2022-08-29T15:17:08.769Z,32.24
2022-08-29T15:20:18.117Z,34.16
2022-08-29T15:22:24.330Z,35.07
2022-08-29T15:24:51.938Z,33.35
2022-08-29T15:27:23.648Z,33.56
2022-08-29T15:29:54.015Z,32.72
2022-08-29T15:32:21.463Z,32.41
2022-08-29T15:34:48.743Z,32.43
2022-08-29T15:37:16.211Z,33.72
2022-08-29T15:39:43.436Z,34.67
2022-08-29T15:42:11.450Z,33.27
2022-08-29T15:44:39.691Z,33.14
2022-08-29T15:47:06.896Z,32.86
2022-08-29T15:49:38.526Z,33.22
2022-08-29T15:52:06.025Z,33.57
2022-08-29T15:54:34.307Z,32.28
2022-08-29T15:57:01.553Z,32.80
2022-08-29T15:59:54.170Z,33.79
2022-08-29T16:02:19.089Z,32.46
2022-08-29T16:04:47.868Z,32.97
2022-08-29T16:07:15.784Z,32.44
2022-08-29T16:09:43.191Z,32.54
2022-08-29T16:12:11.377Z,32.13
2022-08-29T16:14:58.479Z,32.88
2022-08-29T16:17:26.363Z,32.84
2022-08-29T16:19:54.855Z,32.22
2022-08-29T16:22:22.034Z,33.50
2022-08-29T16:24:49.544Z,33.91
2022-08-29T16:27:17.299Z,33.27
2022-08-29T16:29:44.490Z,33.25
2022-08-29T16:32:11.941Z,33.05
2022-08-29T16:34:39.117Z,34.18
2022-08-29T16:37:06.614Z,35.06
2022-08-29T16:39:34.055Z,33.74
2022-08-29T16:42:01.225Z,33.79
2022-08-29T16:44:28.393Z,32.78
2022-08-29T16:46:55.835Z,32.76
2022-08-29T16:49:23.009Z,33.14
2022-08-29T16:51:50.264Z,33.57
2022-08-29T16:54:18.102Z,33.40
2022-08-29T16:56:45.335Z,31.67
2022-08-29T16:59:12.655Z,32.38
2022-08-29T17:01:44.684Z,33.61
2022-08-29T17:04:13.340Z,34.22
2022-08-29T17:06:41.920Z,34.34
2022-08-29T17:09:09.246Z,34.47
2022-08-29T17:11:36.957Z,34.74
2022-08-29T17:14:04.773Z,33.67
2022-08-29T17:16:32.051Z,34.94
2022-08-29T17:18:59.946Z,33.38
2022-08-29T17:21:27.410Z,34.18
2022-08-29T17:23:55.445Z,34.60
2022-08-29T17:26:23.207Z,34.43
2022-08-29T17:28:50.932Z,34.10
2022-08-29T17:31:18.219Z,35.02
2022-08-29T17:33:46.418Z,35.08
2022-08-29T17:36:14.164Z,35.44
2022-08-29T17:38:42.415Z,35.40
2022-08-29T17:41:14.704Z,35.26
2022-08-29T17:43:42.920Z,34.86
2022-08-29T17:46:10.208Z,34.04
2022-08-29T17:48:37.423Z,34.13
2022-08-29T17:51:05.005Z,33.49
2022-08-29T17:53:35.233Z,33.22
2022-08-29T17:56:15.727Z,33.58
2022-08-29T17:58:43.162Z,32.91
2022-08-29T18:01:15.743Z,32.88
2022-08-29T18:03:46.171Z,33.07
2022-08-29T18:06:14.640Z,32.92
2022-08-29T18:08:44.099Z,33.35
2022-08-29T18:11:16.142Z,33.24
2022-08-29T18:13:43.449Z,32.82
2022-08-29T18:16:11.629Z,32.67
2022-08-29T18:18:39.497Z,32.84
2022-08-29T18:21:06.751Z,33.03
2022-08-29T18:23:34.138Z,33.00
2022-08-29T18:26:02.137Z,32.93
2022-08-29T18:28:29.526Z,32.82
2022-08-29T18:30:56.747Z,33.03
2022-08-29T18:33:28.522Z,33.00
2022-08-29T18:36:02.174Z,33.32
2022-08-29T18:38:30.045Z,33.31
2022-08-29T18:40:57.268Z,33.18
2022-08-29T18:43:24.455Z,33.83
2022-08-29T18:45:51.929Z,33.65
2022-08-29T18:48:19.379Z,34.42
2022-08-29T18:50:46.770Z,34.21
2022-08-29T18:53:15.691Z,35.05
2022-08-29T18:55:50.367Z,34.42
2022-08-29T18:58:23.061Z,34.84
2022-08-29T19:00:50.513Z,34.34
2022-08-29T19:03:17.856Z,34.99
2022-08-29T19:05:49.380Z,35.16
2022-08-29T19:08:17.485Z,35.63
2022-08-29T19:10:48.020Z,34.88
2022-08-29T19:13:15.566Z,35.15
2022-08-29T19:15:45.279Z,34.98
2022-08-29T19:18:13.193Z,34.68
2022-08-29T19:20:59.300Z,35.44
2022-08-29T19:23:26.954Z,36.22
2022-08-29T19:25:54.297Z,36.44
2022-08-29T19:28:21.556Z,35.60
2022-08-29T19:30:49.405Z,35.28
2022-08-29T19:33:18.480Z,35.31
2022-08-29T19:35:48.163Z,35.12
2022-08-29T19:38:16.522Z,35.02
2022-08-29T19:40:44.529Z,34.86
2022-08-29T19:43:13.954Z,34.86
2022-08-29T19:45:42.338Z,35.28
2022-08-29T19:48:10.702Z,35.17
2022-08-29T19:50:43.060Z,35.37
2022-08-29T19:53:21.492Z,35.24
2022-08-29T19:55:54.632Z,35.20
2022-08-29T19:58:23.646Z,35.53
2022-08-29T20:01:00.165Z,35.44
2022-08-29T20:03:27.772Z,35.43
2022-08-29T20:05:55.574Z,35.63
2022-08-29T20:08:23.033Z,35.68
2022-08-29T20:10:51.314Z,35.89
2022-08-29T20:13:19.448Z,35.80
2022-08-29T20:15:47.233Z,35.94
2022-08-29T20:18:15.253Z,36.10
2022-08-29T20:20:45.426Z,36.08
2022-08-29T20:23:13.201Z,36.14
2022-08-29T20:25:40.666Z,36.27
2022-08-29T20:28:07.850Z,36.16
2022-08-29T20:30:42.950Z,36.36
2022-08-29T20:33:11.622Z,36.38
2022-08-29T20:35:57.908Z,36.76
2022-08-29T20:38:27.553Z,36.82
2022-08-29T20:40:54.827Z,36.56
2022-08-29T20:43:22.089Z,36.96
2022-08-29T20:45:49.882Z,37.23
2022-08-29T20:48:17.174Z,36.79
2022-08-29T20:50:44.479Z,36.80
2022-08-29T20:53:14.728Z,37.18
2022-08-29T20:55:59.101Z,37.08
2022-08-29T20:58:26.716Z,37.09
2022-08-29T21:00:59.876Z,36.90
2022-08-29T21:03:46.263Z,36.98
2022-08-29T21:06:14.104Z,36.88
2022-08-29T21:08:42.282Z,37.19
2022-08-29T21:11:10.261Z,37.57
2022-08-29T21:13:43.361Z,37.65
2022-08-29T21:16:11.100Z,37.52
2022-08-29T21:18:38.557Z,37.22
2022-08-29T21:21:06.091Z,38.15
2022-08-29T21:23:34.267Z,37.64
2022-08-29T21:26:01.912Z,38.54
2022-08-29T21:28:31.624Z,38.83
2022-08-29T21:31:08.677Z,38.36
2022-08-29T21:33:40.299Z,37.89
2022-08-29T21:36:11.518Z,37.89
2022-08-29T21:38:39.737Z,37.55
2022-08-29T21:41:10.466Z,38.23
2022-08-29T21:43:38.361Z,38.59
2022-08-29T21:46:15.875Z,38.87
2022-08-29T21:48:43.314Z,38.74
2022-08-29T21:51:10.915Z,38.71
2022-08-29T21:53:41.534Z,39.01
2022-08-29T21:56:09.105Z,39.29
2022-08-29T21:58:36.551Z,39.56
2022-08-29T22:01:14.487Z,39.25
2022-08-29T22:03:42.005Z,38.83
2022-08-29T22:06:11.324Z,39.22
2022-08-29T22:08:38.575Z,39.47
2022-08-29T22:11:09.889Z,39.79
2022-08-29T22:13:37.406Z,39.72
2022-08-29T22:16:23.524Z,40.42
2022-08-29T22:18:51.018Z,40.71
2022-08-29T22:21:18.200Z,41.13
2022-08-29T22:23:45.372Z,40.81
2022-08-29T22:26:13.419Z,40.13
2022-08-29T22:28:42.827Z,39.65
2022-08-29T22:31:10.084Z,40.38
2022-08-29T22:33:37.769Z,40.67
2022-08-29T22:36:05.429Z,40.13
2022-08-29T22:38:33.179Z,39.88
2022-08-29T22:41:00.619Z,40.59
2022-08-29T22:43:28.512Z,40.17
2022-08-29T22:45:55.679Z,39.51
2022-08-29T22:48:25.381Z,39.43
2022-08-29T22:50:54.093Z,39.10
2022-08-29T22:53:25.815Z,39.59
2022-08-29T22:55:52.976Z,39.21
2022-08-29T22:58:20.158Z,39.41
2022-08-29T23:00:47.600Z,39.79
2022-08-29T23:03:15.083Z,39.65
2022-08-29T23:05:42.320Z,40.76
2022-08-29T23:08:09.776Z,40.67
2022-08-29T23:10:36.930Z,40.45
2022-08-29T23:13:04.102Z,40.90
2022-08-29T23:15:31.629Z,41.63
2022-08-29T23:18:00.200Z,40.98
2022-08-29T23:20:29.659Z,42.83
2022-08-29T23:22:57.141Z,43.46
2022-08-29T23:25:24.600Z,43.37
2022-08-29T23:27:52.091Z,43.29
2022-08-29T23:30:19.537Z,42.05
2022-08-29T23:32:46.693Z,42.09
2022-08-29T23:35:13.865Z,41.39
2022-08-29T23:37:41.298Z,41.14
2022-08-29T23:40:09.566Z,41.83
2022-08-29T23:42:37.105Z,44.20
2022-08-29T23:45:05.026Z,42.13
2022-08-29T23:47:32.207Z,42.67
2022-08-29T23:49:59.462Z,43.79
2022-08-29T23:52:26.884Z,42.83
2022-08-29T23:54:54.132Z,43.30
2022-08-29T23:57:21.306Z,43.99
